American Lake, Washington
Current Conditions -  °F | °C
As of 6:58 PM on Monday 20 Oct 2014 (Local Time) from KGRF Reporting Station
Drizzle Drizzle  
Wind Chill: 13°   Ceiling: Unl
Heat Index: 13°   Visibility: 10mi
Dew Point: 11°   Wind: 3mph
Humidity: 86%   Direction: 120°ESE
Pressure: 29.77"   Gusts: NA
Location:  47.1451°N, 122.578°W
Report Text: KGRF 210158Z AUTO 12003KT 10SM DZ FEW048 SCT120 13/11 A2977 RMK AO2 RAB0140E0150 SLP085 P0000 T01330110 $
Loading
Personal Weather Stations






























Interactive Weather Map
Tropical Storm Tracking
New forecast layout! Learn more

10-Day Weather Forecast

Advertisements
Track Severe Weather on mobile